Caryville, Florida
Current Conditions -  °F | °C
As of 3:15 AM on Friday 24 Oct 2014 (Local Time) from K54J Reporting Station
Clear Clear  
Wind Chill: 55°   Ceiling: Unl
Heat Index: 55°   Visibility: 10mi
Dew Point: 48°   Wind: 5mph
Humidity: 79%   Direction: 340°NNW
Pressure: 30.04"   Gusts: NA
Location:  30.77°N, 85.81°W
Report Text: K54J 240815Z AUTO 34004KT 10SM CLR 13/09 A3004 RMK AO2 T01250089
Loading
Personal Weather Stations






























Interactive Weather Map
Tropical Storm Tracking
New forecast layout! Learn more

10-Day Weather Forecast

Advertisements
Track Severe Weather on mobile